sensor_id;sensor_type;location;lat;lon;timestamp;temperature;humidity
16064;DHT22;8136;53.172;8.256;2023-05-10T00:01:43;16.00;99.90
16064;DHT22;8136;53.172;8.256;2023-05-10T00:04:10;16.10;99.90
16064;DHT22;8136;53.172;8.256;2023-05-10T00:06:37;16.10;99.90
16064;DHT22;8136;53.172;8.256;2023-05-10T00:09:04;16.10;99.90
16064;DHT22;8136;53.172;8.256;2023-05-10T00:11:30;16.00;99.90
16064;DHT22;8136;53.172;8.256;2023-05-10T00:13:59;16.00;99.90
16064;DHT22;8136;53.172;8.256;2023-05-10T00:16:25;16.00;99.90
16064;DHT22;8136;53.172;8.256;2023-05-10T00:18:52;16.00;99.90
16064;DHT22;8136;53.172;8.256;2023-05-10T00:21:19;16.00;99.90
16064;DHT22;8136;53.172;8.256;2023-05-10T00:23:46;16.00;99.90
16064;DHT22;8136;53.172;8.256;2023-05-10T00:26:13;16.00;99.90
16064;DHT22;8136;53.172;8.256;2023-05-10T00:28:40;16.00;99.90
16064;DHT22;8136;53.172;8.256;2023-05-10T00:31:08;16.00;99.90
16064;DHT22;8136;53.172;8.256;2023-05-10T00:33:35;16.00;99.90
16064;DHT22;8136;53.172;8.256;2023-05-10T00:36:02;16.00;99.90
16064;DHT22;8136;53.172;8.256;2023-05-10T00:38:29;15.90;99.90
16064;DHT22;8136;53.172;8.256;2023-05-10T00:40:55;15.90;99.90
16064;DHT22;8136;53.172;8.256;2023-05-10T00:43:22;15.90;99.90
16064;DHT22;8136;53.172;8.256;2023-05-10T00:45:49;15.90;99.90
16064;DHT22;8136;53.172;8.256;2023-05-10T00:48:18;15.90;99.90
16064;DHT22;8136;53.172;8.256;2023-05-10T00:50:45;15.90;99.90
16064;DHT22;8136;53.172;8.256;2023-05-10T00:53:12;15.80;99.90
16064;DHT22;8136;53.172;8.256;2023-05-10T00:55:39;15.80;99.90
16064;DHT22;8136;53.172;8.256;2023-05-10T00:58:06;15.90;99.90
16064;DHT22;8136;53.172;8.256;2023-05-10T01:00:33;15.90;99.90
16064;DHT22;8136;53.172;8.256;2023-05-10T01:03:00;15.90;99.90
16064;DHT22;8136;53.172;8.256;2023-05-10T01:05:28;15.90;99.90
16064;DHT22;8136;53.172;8.256;2023-05-10T01:07:56;15.90;99.90
16064;DHT22;8136;53.172;8.256;2023-05-10T01:10:23;15.90;99.90
16064;DHT22;8136;53.172;8.256;2023-05-10T01:12:50;15.90;99.90
16064;DHT22;8136;53.172;8.256;2023-05-10T01:15:17;15.90;99.90
16064;DHT22;8136;53.172;8.256;2023-05-10T01:17:46;15.90;99.90
16064;DHT22;8136;53.172;8.256;2023-05-10T01:20:14;15.90;99.90
16064;DHT22;8136;53.172;8.256;2023-05-10T01:23:04;15.90;99.90
16064;DHT22;8136;53.172;8.256;2023-05-10T01:25:55;15.80;99.90
16064;DHT22;8136;53.172;8.256;2023-05-10T01:31:28;15.80;99.90
16064;DHT22;8136;53.172;8.256;2023-05-10T01:34:01;15.80;99.90
16064;DHT22;8136;53.172;8.256;2023-05-10T01:36:31;15.70;99.90
16064;DHT22;8136;53.172;8.256;2023-05-10T01:39:02;15.70;99.90
16064;DHT22;8136;53.172;8.256;2023-05-10T01:41:39;15.70;99.90
16064;DHT22;8136;53.172;8.256;2023-05-10T01:44:16;15.70;99.90
16064;DHT22;8136;53.172;8.256;2023-05-10T01:49:34;15.70;99.90
16064;DHT22;8136;53.172;8.256;2023-05-10T01:52:06;15.70;99.90
16064;DHT22;8136;53.172;8.256;2023-05-10T01:54:35;15.70;99.90
16064;DHT22;8136;53.172;8.256;2023-05-10T01:57:06;15.60;99.90
16064;DHT22;8136;53.172;8.256;2023-05-10T01:59:37;15.60;99.90
16064;DHT22;8136;53.172;8.256;2023-05-10T02:02:07;15.60;99.90
16064;DHT22;8136;53.172;8.256;2023-05-10T02:04:39;15.60;99.90
16064;DHT22;8136;53.172;8.256;2023-05-10T02:07:08;15.60;99.90
16064;DHT22;8136;53.172;8.256;2023-05-10T02:09:37;15.60;99.90
16064;DHT22;8136;53.172;8.256;2023-05-10T02:12:05;15.50;99.90
16064;DHT22;8136;53.172;8.256;2023-05-10T02:14:35;15.50;99.90
16064;DHT22;8136;53.172;8.256;2023-05-10T02:17:05;15.50;99.90
16064;DHT22;8136;53.172;8.256;2023-05-10T02:19:32;15.50;99.90
16064;DHT22;8136;53.172;8.256;2023-05-10T02:22:02;15.50;99.90
16064;DHT22;8136;53.172;8.256;2023-05-10T02:24:30;15.50;99.90
16064;DHT22;8136;53.172;8.256;2023-05-10T02:26:59;15.50;99.90
16064;DHT22;8136;53.172;8.256;2023-05-10T02:29:27;15.40;99.90
16064;DHT22;8136;53.172;8.256;2023-05-10T02:31:55;15.30;99.90
16064;DHT22;8136;53.172;8.256;2023-05-10T02:34:23;15.40;99.90
16064;DHT22;8136;53.172;8.256;2023-05-10T02:36:52;15.40;99.90
16064;DHT22;8136;53.172;8.256;2023-05-10T02:39:21;15.40;99.90
16064;DHT22;8136;53.172;8.256;2023-05-10T02:41:50;15.40;99.90
16064;DHT22;8136;53.172;8.256;2023-05-10T02:44:18;15.30;99.90
16064;DHT22;8136;53.172;8.256;2023-05-10T02:46:46;15.30;99.90
16064;DHT22;8136;53.172;8.256;2023-05-10T02:49:13;15.30;99.90
16064;DHT22;8136;53.172;8.256;2023-05-10T02:51:43;15.40;99.90
16064;DHT22;8136;53.172;8.256;2023-05-10T02:54:13;15.40;99.90
16064;DHT22;8136;53.172;8.256;2023-05-10T02:56:47;15.40;99.90
16064;DHT22;8136;53.172;8.256;2023-05-10T02:59:17;15.30;99.90
16064;DHT22;8136;53.172;8.256;2023-05-10T03:01:43;15.30;99.90
16064;DHT22;8136;53.172;8.256;2023-05-10T03:04:10;15.20;99.90
16064;DHT22;8136;53.172;8.256;2023-05-10T03:06:37;15.20;99.90
16064;DHT22;8136;53.172;8.256;2023-05-10T03:09:04;15.20;99.90
16064;DHT22;8136;53.172;8.256;2023-05-10T03:11:39;15.20;99.90
16064;DHT22;8136;53.172;8.256;2023-05-10T03:14:21;15.10;99.90
16064;DHT22;8136;53.172;8.256;2023-05-10T03:17:02;15.20;99.90
16064;DHT22;8136;53.172;8.256;2023-05-10T03:19:34;15.20;99.90
16064;DHT22;8136;53.172;8.256;2023-05-10T03:22:10;15.10;99.90
16064;DHT22;8136;53.172;8.256;2023-05-10T03:24:41;15.10;99.90
16064;DHT22;8136;53.172;8.256;2023-05-10T03:27:08;15.10;99.90
16064;DHT22;8136;53.172;8.256;2023-05-10T03:29:37;15.10;99.90
16064;DHT22;8136;53.172;8.256;2023-05-10T03:32:05;15.20;99.90
16064;DHT22;8136;53.172;8.256;2023-05-10T03:34:32;15.10;99.90
16064;DHT22;8136;53.172;8.256;2023-05-10T03:36:59;15.10;99.90
16064;DHT22;8136;53.172;8.256;2023-05-10T03:39:26;15.10;99.90
16064;DHT22;8136;53.172;8.256;2023-05-10T03:41:52;15.10;99.90
16064;DHT22;8136;53.172;8.256;2023-05-10T03:44:19;15.00;99.90
16064;DHT22;8136;53.172;8.256;2023-05-10T03:46:47;14.90;99.90
16064;DHT22;8136;53.172;8.256;2023-05-10T03:49:14;14.90;99.90
16064;DHT22;8136;53.172;8.256;2023-05-10T03:51:41;14.80;99.90
16064;DHT22;8136;53.172;8.256;2023-05-10T03:54:08;14.80;99.90
16064;DHT22;8136;53.172;8.256;2023-05-10T03:56:34;14.70;99.90
16064;DHT22;8136;53.172;8.256;2023-05-10T03:59:01;14.60;99.90
16064;DHT22;8136;53.172;8.256;2023-05-10T04:01:32;14.70;99.90
16064;DHT22;8136;53.172;8.256;2023-05-10T04:04:00;14.50;99.90
16064;DHT22;8136;53.172;8.256;2023-05-10T04:06:27;14.50;99.90
16064;DHT22;8136;53.172;8.256;2023-05-10T04:08:54;14.50;99.90
16064;DHT22;8136;53.172;8.256;2023-05-10T04:11:21;14.50;99.90
16064;DHT22;8136;53.172;8.256;2023-05-10T04:13:48;14.50;99.90
16064;DHT22;8136;53.172;8.256;2023-05-10T04:16:15;14.60;99.90
16064;DHT22;8136;53.172;8.256;2023-05-10T04:18:42;14.60;99.90
16064;DHT22;8136;53.172;8.256;2023-05-10T04:21:13;14.60;99.90
16064;DHT22;8136;53.172;8.256;2023-05-10T04:23:40;14.60;99.90
16064;DHT22;8136;53.172;8.256;2023-05-10T04:26:07;14.60;99.90
16064;DHT22;8136;53.172;8.256;2023-05-10T04:28:34;14.60;99.90
16064;DHT22;8136;53.172;8.256;2023-05-10T04:31:01;14.60;99.90
16064;DHT22;8136;53.172;8.256;2023-05-10T04:33:28;14.60;99.90
16064;DHT22;8136;53.172;8.256;2023-05-10T04:35:55;14.60;99.90
16064;DHT22;8136;53.172;8.256;2023-05-10T04:38:23;14.60;99.90
16064;DHT22;8136;53.172;8.256;2023-05-10T04:40:50;14.60;99.90
16064;DHT22;8136;53.172;8.256;2023-05-10T04:43:17;14.60;99.90
16064;DHT22;8136;53.172;8.256;2023-05-10T04:45:44;14.60;99.90
16064;DHT22;8136;53.172;8.256;2023-05-10T04:48:11;14.70;99.90
16064;DHT22;8136;53.172;8.256;2023-05-10T04:50:38;14.70;99.90
16064;DHT22;8136;53.172;8.256;2023-05-10T04:53:05;14.70;99.90
16064;DHT22;8136;53.172;8.256;2023-05-10T04:55:33;14.80;99.90
16064;DHT22;8136;53.172;8.256;2023-05-10T04:58:00;14.80;99.90
16064;DHT22;8136;53.172;8.256;2023-05-10T05:00:28;14.90;99.90
16064;DHT22;8136;53.172;8.256;2023-05-10T05:02:55;14.90;99.90
16064;DHT22;8136;53.172;8.256;2023-05-10T05:05:21;14.80;99.90
16064;DHT22;8136;53.172;8.256;2023-05-10T05:07:48;14.80;99.90
16064;DHT22;8136;53.172;8.256;2023-05-10T05:10:15;14.70;99.90
16064;DHT22;8136;53.172;8.256;2023-05-10T05:12:43;14.60;99.90
16064;DHT22;8136;53.172;8.256;2023-05-10T05:15:10;14.60;99.90
16064;DHT22;8136;53.172;8.256;2023-05-10T05:17:37;14.50;99.90
16064;DHT22;8136;53.172;8.256;2023-05-10T05:20:05;14.50;99.90
16064;DHT22;8136;53.172;8.256;2023-05-10T05:22:32;14.50;99.90
16064;DHT22;8136;53.172;8.256;2023-05-10T05:24:59;14.50;99.90
16064;DHT22;8136;53.172;8.256;2023-05-10T05:27:27;14.40;99.90
16064;DHT22;8136;53.172;8.256;2023-05-10T05:29:56;14.40;99.90
16064;DHT22;8136;53.172;8.256;2023-05-10T05:32:23;14.40;99.90
16064;DHT22;8136;53.172;8.256;2023-05-10T05:34:51;14.40;99.90
16064;DHT22;8136;53.172;8.256;2023-05-10T05:37:19;14.40;99.90
16064;DHT22;8136;53.172;8.256;2023-05-10T05:39:47;14.30;99.90
16064;DHT22;8136;53.172;8.256;2023-05-10T05:42:14;14.40;99.90
16064;DHT22;8136;53.172;8.256;2023-05-10T05:44:42;14.40;99.90
16064;DHT22;8136;53.172;8.256;2023-05-10T05:47:10;14.40;99.90
16064;DHT22;8136;53.172;8.256;2023-05-10T05:49:37;14.30;99.90
16064;DHT22;8136;53.172;8.256;2023-05-10T05:52:04;14.40;99.90
16064;DHT22;8136;53.172;8.256;2023-05-10T05:54:31;14.40;99.90
16064;DHT22;8136;53.172;8.256;2023-05-10T05:56:59;14.30;99.90
16064;DHT22;8136;53.172;8.256;2023-05-10T05:59:26;14.30;99.90
16064;DHT22;8136;53.172;8.256;2023-05-10T06:01:53;14.30;99.90
16064;DHT22;8136;53.172;8.256;2023-05-10T06:04:21;14.30;99.90
16064;DHT22;8136;53.172;8.256;2023-05-10T06:06:48;14.30;99.90
16064;DHT22;8136;53.172;8.256;2023-05-10T06:09:15;14.20;99.90
16064;DHT22;8136;53.172;8.256;2023-05-10T06:11:42;14.20;99.90
16064;DHT22;8136;53.172;8.256;2023-05-10T06:14:08;14.30;99.90
16064;DHT22;8136;53.172;8.256;2023-05-10T06:16:35;14.30;99.90
16064;DHT22;8136;53.172;8.256;2023-05-10T06:19:02;14.30;99.90
16064;DHT22;8136;53.172;8.256;2023-05-10T06:21:31;14.30;99.90
16064;DHT22;8136;53.172;8.256;2023-05-10T06:23:58;14.30;99.90
16064;DHT22;8136;53.172;8.256;2023-05-10T06:26:24;14.30;99.90
16064;DHT22;8136;53.172;8.256;2023-05-10T06:28:51;14.40;99.90
16064;DHT22;8136;53.172;8.256;2023-05-10T06:31:18;14.40;99.90
16064;DHT22;8136;53.172;8.256;2023-05-10T06:33:45;14.30;99.90
16064;DHT22;8136;53.172;8.256;2023-05-10T06:36:11;14.40;99.90
16064;DHT22;8136;53.172;8.256;2023-05-10T06:38:40;14.40;99.90
16064;DHT22;8136;53.172;8.256;2023-05-10T06:41:06;14.30;99.90
16064;DHT22;8136;53.172;8.256;2023-05-10T06:43:33;14.30;99.90
16064;DHT22;8136;53.172;8.256;2023-05-10T06:46:00;14.30;99.90
16064;DHT22;8136;53.172;8.256;2023-05-10T06:48:27;14.30;99.90
16064;DHT22;8136;53.172;8.256;2023-05-10T06:50:53;14.20;99.90
16064;DHT22;8136;53.172;8.256;2023-05-10T06:53:20;14.30;99.90
16064;DHT22;8136;53.172;8.256;2023-05-10T06:55:49;14.30;99.90
16064;DHT22;8136;53.172;8.256;2023-05-10T06:58:16;14.30;99.90
16064;DHT22;8136;53.172;8.256;2023-05-10T07:00:42;14.20;99.90
16064;DHT22;8136;53.172;8.256;2023-05-10T07:03:10;14.30;99.90
16064;DHT22;8136;53.172;8.256;2023-05-10T07:05:37;14.30;99.90
16064;DHT22;8136;53.172;8.256;2023-05-10T07:08:04;14.30;99.90
16064;DHT22;8136;53.172;8.256;2023-05-10T07:10:31;14.40;99.90
16064;DHT22;8136;53.172;8.256;2023-05-10T07:12:59;14.40;99.90
16064;DHT22;8136;53.172;8.256;2023-05-10T07:15:26;14.30;99.90
16064;DHT22;8136;53.172;8.256;2023-05-10T07:17:53;14.40;99.90
16064;DHT22;8136;53.172;8.256;2023-05-10T07:20:20;14.40;99.90
16064;DHT22;8136;53.172;8.256;2023-05-10T07:22:47;14.40;99.90
16064;DHT22;8136;53.172;8.256;2023-05-10T07:25:13;14.50;99.90
16064;DHT22;8136;53.172;8.256;2023-05-10T07:27:40;14.50;99.90
16064;DHT22;8136;53.172;8.256;2023-05-10T07:30:09;14.50;99.90
16064;DHT22;8136;53.172;8.256;2023-05-10T07:32:36;14.50;99.90
16064;DHT22;8136;53.172;8.256;2023-05-10T07:35:05;14.40;99.90
16064;DHT22;8136;53.172;8.256;2023-05-10T07:37:32;14.40;99.90
16064;DHT22;8136;53.172;8.256;2023-05-10T07:39:59;14.40;99.90
16064;DHT22;8136;53.172;8.256;2023-05-10T07:42:25;14.40;99.90
16064;DHT22;8136;53.172;8.256;2023-05-10T07:44:52;14.40;99.90
16064;DHT22;8136;53.172;8.256;2023-05-10T07:47:20;14.40;99.90
16064;DHT22;8136;53.172;8.256;2023-05-10T07:49:47;14.40;99.90
16064;DHT22;8136;53.172;8.256;2023-05-10T07:52:14;14.40;99.90
16064;DHT22;8136;53.172;8.256;2023-05-10T07:54:40;14.40;99.90
16064;DHT22;8136;53.172;8.256;2023-05-10T07:57:07;14.40;99.90
16064;DHT22;8136;53.172;8.256;2023-05-10T07:59:34;14.30;99.90
16064;DHT22;8136;53.172;8.256;2023-05-10T08:02:01;14.30;99.90
16064;DHT22;8136;53.172;8.256;2023-05-10T08:04:29;14.40;99.90
16064;DHT22;8136;53.172;8.256;2023-05-10T08:06:55;14.40;99.90
16064;DHT22;8136;53.172;8.256;2023-05-10T08:09:22;14.40;99.90
16064;DHT22;8136;53.172;8.256;2023-05-10T08:11:49;14.40;99.90
16064;DHT22;8136;53.172;8.256;2023-05-10T08:14:16;14.40;99.90
16064;DHT22;8136;53.172;8.256;2023-05-10T08:16:43;14.30;99.90
16064;DHT22;8136;53.172;8.256;2023-05-10T08:19:10;14.30;99.90
16064;DHT22;8136;53.172;8.256;2023-05-10T08:21:38;14.30;99.90
16064;DHT22;8136;53.172;8.256;2023-05-10T08:24:06;14.30;99.90
16064;DHT22;8136;53.172;8.256;2023-05-10T08:26:33;14.30;99.90
16064;DHT22;8136;53.172;8.256;2023-05-10T08:29:00;14.40;99.90
16064;DHT22;8136;53.172;8.256;2023-05-10T08:31:27;14.40;99.90
16064;DHT22;8136;53.172;8.256;2023-05-10T08:33:54;14.40;99.90
16064;DHT22;8136;53.172;8.256;2023-05-10T08:36:20;14.50;99.90
16064;DHT22;8136;53.172;8.256;2023-05-10T08:38:51;14.50;99.90
16064;DHT22;8136;53.172;8.256;2023-05-10T08:41:19;14.50;99.90
16064;DHT22;8136;53.172;8.256;2023-05-10T08:43:47;14.40;99.90
16064;DHT22;8136;53.172;8.256;2023-05-10T08:46:16;14.40;99.90
16064;DHT22;8136;53.172;8.256;2023-05-10T08:48:44;14.40;99.90
16064;DHT22;8136;53.172;8.256;2023-05-10T08:51:14;14.40;99.90
16064;DHT22;8136;53.172;8.256;2023-05-10T08:53:41;14.50;99.90
16064;DHT22;8136;53.172;8.256;2023-05-10T08:56:10;14.40;99.90
16064;DHT22;8136;53.172;8.256;2023-05-10T08:58:37;14.50;99.90
16064;DHT22;8136;53.172;8.256;2023-05-10T09:01:05;14.50;99.90
16064;DHT22;8136;53.172;8.256;2023-05-10T09:03:31;14.50;99.90
16064;DHT22;8136;53.172;8.256;2023-05-10T09:05:58;14.50;99.90
16064;DHT22;8136;53.172;8.256;2023-05-10T09:08:26;14.50;99.90
16064;DHT22;8136;53.172;8.256;2023-05-10T09:10:53;14.50;99.90
16064;DHT22;8136;53.172;8.256;2023-05-10T09:13:22;14.50;99.90
16064;DHT22;8136;53.172;8.256;2023-05-10T09:15:50;14.40;99.90
16064;DHT22;8136;53.172;8.256;2023-05-10T09:18:17;14.50;99.90
16064;DHT22;8136;53.172;8.256;2023-05-10T09:20:44;14.50;99.90
16064;DHT22;8136;53.172;8.256;2023-05-10T09:23:10;14.40;99.90
16064;DHT22;8136;53.172;8.256;2023-05-10T09:25:38;14.40;99.90
16064;DHT22;8136;53.172;8.256;2023-05-10T09:28:06;14.40;99.90
16064;DHT22;8136;53.172;8.256;2023-05-10T09:30:35;14.30;99.90
16064;DHT22;8136;53.172;8.256;2023-05-10T09:33:02;14.40;99.90
16064;DHT22;8136;53.172;8.256;2023-05-10T09:35:30;14.40;99.90
16064;DHT22;8136;53.172;8.256;2023-05-10T09:37:59;14.40;99.90
16064;DHT22;8136;53.172;8.256;2023-05-10T09:40:28;14.40;99.90
16064;DHT22;8136;53.172;8.256;2023-05-10T09:42:56;14.40;99.90
16064;DHT22;8136;53.172;8.256;2023-05-10T09:45:24;14.50;99.90
16064;DHT22;8136;53.172;8.256;2023-05-10T09:47:52;14.50;99.90
16064;DHT22;8136;53.172;8.256;2023-05-10T09:50:20;14.50;99.90
16064;DHT22;8136;53.172;8.256;2023-05-10T09:52:48;14.50;99.90
16064;DHT22;8136;53.172;8.256;2023-05-10T09:55:17;14.40;99.90
16064;DHT22;8136;53.172;8.256;2023-05-10T09:57:45;14.50;99.90
16064;DHT22;8136;53.172;8.256;2023-05-10T10:00:18;14.60;99.90
16064;DHT22;8136;53.172;8.256;2023-05-10T10:02:47;14.50;99.90
16064;DHT22;8136;53.172;8.256;2023-05-10T10:05:15;14.60;99.90
16064;DHT22;8136;53.172;8.256;2023-05-10T10:07:42;14.70;99.90
16064;DHT22;8136;53.172;8.256;2023-05-10T10:10:10;14.80;99.90
16064;DHT22;8136;53.172;8.256;2023-05-10T10:12:39;14.90;99.90
16064;DHT22;8136;53.172;8.256;2023-05-10T10:15:07;15.00;99.90
16064;DHT22;8136;53.172;8.256;2023-05-10T10:17:36;15.10;99.90
16064;DHT22;8136;53.172;8.256;2023-05-10T10:20:04;15.30;99.90
16064;DHT22;8136;53.172;8.256;2023-05-10T10:22:33;15.40;99.90
16064;DHT22;8136;53.172;8.256;2023-05-10T10:25:00;15.40;99.90
16064;DHT22;8136;53.172;8.256;2023-05-10T10:27:37;15.20;99.90
16064;DHT22;8136;53.172;8.256;2023-05-10T10:30:13;15.30;99.90
16064;DHT22;8136;53.172;8.256;2023-05-10T10:33:01;15.40;99.90
16064;DHT22;8136;53.172;8.256;2023-05-10T10:35:34;15.40;99.90
16064;DHT22;8136;53.172;8.256;2023-05-10T10:38:02;15.40;99.90
16064;DHT22;8136;53.172;8.256;2023-05-10T10:40:30;15.30;99.90
16064;DHT22;8136;53.172;8.256;2023-05-10T10:42:58;15.30;99.90
16064;DHT22;8136;53.172;8.256;2023-05-10T10:45:25;15.30;99.90
16064;DHT22;8136;53.172;8.256;2023-05-10T10:48:21;15.20;99.90
16064;DHT22;8136;53.172;8.256;2023-05-10T10:50:56;15.10;99.90
16064;DHT22;8136;53.172;8.256;2023-05-10T10:53:27;15.00;99.90
16064;DHT22;8136;53.172;8.256;2023-05-10T10:56:05;14.90;99.90
16064;DHT22;8136;53.172;8.256;2023-05-10T10:58:33;14.90;99.90
16064;DHT22;8136;53.172;8.256;2023-05-10T11:01:11;14.90;99.90
16064;DHT22;8136;53.172;8.256;2023-05-10T11:03:38;14.90;99.90
16064;DHT22;8136;53.172;8.256;2023-05-10T11:06:05;15.00;99.90
16064;DHT22;8136;53.172;8.256;2023-05-10T11:08:41;15.10;99.90
16064;DHT22;8136;53.172;8.256;2023-05-10T11:11:08;15.20;99.90
16064;DHT22;8136;53.172;8.256;2023-05-10T11:13:38;15.20;99.90
16064;DHT22;8136;53.172;8.256;2023-05-10T11:16:13;15.20;99.90
16064;DHT22;8136;53.172;8.256;2023-05-10T11:18:41;15.30;99.90
16064;DHT22;8136;53.172;8.256;2023-05-10T11:21:18;15.20;99.90
16064;DHT22;8136;53.172;8.256;2023-05-10T11:23:50;15.30;99.90
16064;DHT22;8136;53.172;8.256;2023-05-10T11:26:18;15.40;99.90
16064;DHT22;8136;53.172;8.256;2023-05-10T11:28:49;15.40;99.90
16064;DHT22;8136;53.172;8.256;2023-05-10T11:31:16;15.40;99.90
16064;DHT22;8136;53.172;8.256;2023-05-10T11:33:44;15.40;99.90
16064;DHT22;8136;53.172;8.256;2023-05-10T11:36:11;15.30;99.90
16064;DHT22;8136;53.172;8.256;2023-05-10T11:38:38;15.20;99.90
16064;DHT22;8136;53.172;8.256;2023-05-10T11:41:08;15.10;99.90
16064;DHT22;8136;53.172;8.256;2023-05-10T11:43:35;15.10;99.90
16064;DHT22;8136;53.172;8.256;2023-05-10T11:46:04;15.10;99.90
16064;DHT22;8136;53.172;8.256;2023-05-10T11:48:31;15.10;99.90
16064;DHT22;8136;53.172;8.256;2023-05-10T11:50:58;15.10;99.90
16064;DHT22;8136;53.172;8.256;2023-05-10T11:53:26;15.00;99.90
16064;DHT22;8136;53.172;8.256;2023-05-10T11:55:53;14.90;99.90
16064;DHT22;8136;53.172;8.256;2023-05-10T11:58:22;14.90;99.90
16064;DHT22;8136;53.172;8.256;2023-05-10T12:00:49;14.90;99.90
16064;DHT22;8136;53.172;8.256;2023-05-10T12:03:17;14.80;99.90
16064;DHT22;8136;53.172;8.256;2023-05-10T12:05:44;14.80;99.90
16064;DHT22;8136;53.172;8.256;2023-05-10T12:08:12;14.70;99.90
16064;DHT22;8136;53.172;8.256;2023-05-10T12:10:39;14.70;99.90
16064;DHT22;8136;53.172;8.256;2023-05-10T12:13:06;14.70;99.90
16064;DHT22;8136;53.172;8.256;2023-05-10T12:15:38;14.70;99.90
16064;DHT22;8136;53.172;8.256;2023-05-10T12:18:05;14.70;99.90
16064;DHT22;8136;53.172;8.256;2023-05-10T12:20:32;14.70;99.90
16064;DHT22;8136;53.172;8.256;2023-05-10T12:22:59;14.70;99.90
16064;DHT22;8136;53.172;8.256;2023-05-10T12:25:30;14.80;99.90
16064;DHT22;8136;53.172;8.256;2023-05-10T12:27:59;14.90;99.90
16064;DHT22;8136;53.172;8.256;2023-05-10T12:30:27;15.00;99.90
16064;DHT22;8136;53.172;8.256;2023-05-10T12:33:00;15.10;99.90
16064;DHT22;8136;53.172;8.256;2023-05-10T12:35:30;15.00;99.90
16064;DHT22;8136;53.172;8.256;2023-05-10T12:37:57;15.00;99.90
16064;DHT22;8136;53.172;8.256;2023-05-10T12:40:24;15.10;99.90
16064;DHT22;8136;53.172;8.256;2023-05-10T12:42:51;15.10;99.90
16064;DHT22;8136;53.172;8.256;2023-05-10T12:45:18;15.20;99.90
16064;DHT22;8136;53.172;8.256;2023-05-10T12:47:45;15.20;99.90
16064;DHT22;8136;53.172;8.256;2023-05-10T12:50:13;15.20;99.90
16064;DHT22;8136;53.172;8.256;2023-05-10T12:52:40;15.30;99.90
16064;DHT22;8136;53.172;8.256;2023-05-10T12:55:07;15.30;99.90
16064;DHT22;8136;53.172;8.256;2023-05-10T12:57:34;15.40;99.90
16064;DHT22;8136;53.172;8.256;2023-05-10T13:00:01;15.40;99.90
16064;DHT22;8136;53.172;8.256;2023-05-10T13:02:29;15.50;99.90
16064;DHT22;8136;53.172;8.256;2023-05-10T13:04:55;15.60;99.90
16064;DHT22;8136;53.172;8.256;2023-05-10T13:07:24;15.60;99.90
16064;DHT22;8136;53.172;8.256;2023-05-10T13:09:50;15.60;99.90
16064;DHT22;8136;53.172;8.256;2023-05-10T13:12:17;15.70;99.90
16064;DHT22;8136;53.172;8.256;2023-05-10T13:14:44;15.70;99.90
16064;DHT22;8136;53.172;8.256;2023-05-10T13:17:11;15.70;99.90
16064;DHT22;8136;53.172;8.256;2023-05-10T13:19:38;15.60;99.90
16064;DHT22;8136;53.172;8.256;2023-05-10T13:22:04;15.70;99.90
16064;DHT22;8136;53.172;8.256;2023-05-10T13:24:33;15.60;99.90
16064;DHT22;8136;53.172;8.256;2023-05-10T13:26:59;15.70;99.90
16064;DHT22;8136;53.172;8.256;2023-05-10T13:29:26;15.80;99.90
16064;DHT22;8136;53.172;8.256;2023-05-10T13:31:53;15.80;99.90
16064;DHT22;8136;53.172;8.256;2023-05-10T13:34:20;15.80;99.90
16064;DHT22;8136;53.172;8.256;2023-05-10T13:36:47;15.90;99.90
16064;DHT22;8136;53.172;8.256;2023-05-10T13:39:14;15.90;99.90
16064;DHT22;8136;53.172;8.256;2023-05-10T13:41:42;15.90;99.90
16064;DHT22;8136;53.172;8.256;2023-05-10T13:44:12;15.90;99.90
16064;DHT22;8136;53.172;8.256;2023-05-10T13:46:39;15.90;99.90
16064;DHT22;8136;53.172;8.256;2023-05-10T13:49:06;15.90;99.90
16064;DHT22;8136;53.172;8.256;2023-05-10T13:51:33;16.00;99.90
16064;DHT22;8136;53.172;8.256;2023-05-10T13:54:01;16.10;99.90
16064;DHT22;8136;53.172;8.256;2023-05-10T13:56:27;16.20;99.90
16064;DHT22;8136;53.172;8.256;2023-05-10T13:58:56;16.30;99.90
16064;DHT22;8136;53.172;8.256;2023-05-10T14:01:23;16.40;99.90
16064;DHT22;8136;53.172;8.256;2023-05-10T14:03:49;16.60;99.90
16064;DHT22;8136;53.172;8.256;2023-05-10T14:06:16;16.60;99.90
16064;DHT22;8136;53.172;8.256;2023-05-10T14:08:43;16.70;99.90
16064;DHT22;8136;53.172;8.256;2023-05-10T14:11:10;16.80;99.90
16064;DHT22;8136;53.172;8.256;2023-05-10T14:13:37;16.80;99.90
16064;DHT22;8136;53.172;8.256;2023-05-10T14:16:06;16.80;99.90
16064;DHT22;8136;53.172;8.256;2023-05-10T14:18:32;16.70;99.90
16064;DHT22;8136;53.172;8.256;2023-05-10T14:20:59;16.70;99.90
16064;DHT22;8136;53.172;8.256;2023-05-10T14:23:26;16.70;99.90
16064;DHT22;8136;53.172;8.256;2023-05-10T14:25:54;16.60;99.90
16064;DHT22;8136;53.172;8.256;2023-05-10T14:28:21;16.40;99.90
16064;DHT22;8136;53.172;8.256;2023-05-10T14:30:49;16.30;99.90
16064;DHT22;8136;53.172;8.256;2023-05-10T14:33:17;16.30;99.90
16064;DHT22;8136;53.172;8.256;2023-05-10T14:35:44;16.30;99.90
16064;DHT22;8136;53.172;8.256;2023-05-10T14:38:12;16.10;99.90
16064;DHT22;8136;53.172;8.256;2023-05-10T14:40:38;16.10;99.90
16064;DHT22;8136;53.172;8.256;2023-05-10T14:43:05;16.20;99.90
16064;DHT22;8136;53.172;8.256;2023-05-10T14:45:32;16.20;99.90
16064;DHT22;8136;53.172;8.256;2023-05-10T14:47:59;16.10;99.90
16064;DHT22;8136;53.172;8.256;2023-05-10T14:50:27;16.10;99.90
16064;DHT22;8136;53.172;8.256;2023-05-10T14:52:54;16.20;99.90
16064;DHT22;8136;53.172;8.256;2023-05-10T14:55:21;16.20;99.90
16064;DHT22;8136;53.172;8.256;2023-05-10T14:57:48;16.20;99.90
16064;DHT22;8136;53.172;8.256;2023-05-10T15:00:16;16.30;99.90
16064;DHT22;8136;53.172;8.256;2023-05-10T15:02:44;16.40;99.90
16064;DHT22;8136;53.172;8.256;2023-05-10T15:05:11;16.40;99.90
16064;DHT22;8136;53.172;8.256;2023-05-10T15:07:39;16.50;99.90
16064;DHT22;8136;53.172;8.256;2023-05-10T15:10:09;16.60;99.90
16064;DHT22;8136;53.172;8.256;2023-05-10T15:12:36;16.50;99.90
16064;DHT22;8136;53.172;8.256;2023-05-10T15:15:03;16.50;99.90
16064;DHT22;8136;53.172;8.256;2023-05-10T15:17:30;16.40;99.90
16064;DHT22;8136;53.172;8.256;2023-05-10T15:19:56;16.30;99.90
16064;DHT22;8136;53.172;8.256;2023-05-10T15:22:23;16.20;99.90
16064;DHT22;8136;53.172;8.256;2023-05-10T15:24:52;16.20;99.90
16064;DHT22;8136;53.172;8.256;2023-05-10T15:27:18;16.10;99.90
16064;DHT22;8136;53.172;8.256;2023-05-10T15:29:45;16.10;99.90
16064;DHT22;8136;53.172;8.256;2023-05-10T15:32:12;16.10;99.90
16064;DHT22;8136;53.172;8.256;2023-05-10T15:34:39;16.30;99.90
16064;DHT22;8136;53.172;8.256;2023-05-10T15:37:06;16.30;99.90
16064;DHT22;8136;53.172;8.256;2023-05-10T15:39:33;16.40;99.90
16064;DHT22;8136;53.172;8.256;2023-05-10T15:42:01;16.70;99.90
16064;DHT22;8136;53.172;8.256;2023-05-10T15:44:29;16.80;99.90
16064;DHT22;8136;53.172;8.256;2023-05-10T15:46:55;16.90;99.90
16064;DHT22;8136;53.172;8.256;2023-05-10T15:49:22;17.00;99.90
16064;DHT22;8136;53.172;8.256;2023-05-10T15:51:49;17.00;99.90
16064;DHT22;8136;53.172;8.256;2023-05-10T15:54:16;17.00;99.90
16064;DHT22;8136;53.172;8.256;2023-05-10T15:56:43;17.10;99.90